Time;durP1;ratioP1;P1;durP2;ratioP2;P2;SDS_P1;SDS_P2;PMS_P1;PMS_P2;Temp;Humidity;BMP_temperature;BMP_pressure;BME280_temperature;BME280_humidity;BME280_pressure;Samples;Min_cycle;Max_cycle;Signal;HPM_P1;HPM_P2
2022/04/12 00:00:00;;;;;;;;;;;9.50;77.30;;;;;;2065721;28;20362;-67
2022/04/12 00:01:01;;;;;;;;;;;9.40;77.20;;;;;;2063002;28;20412;-67
2022/04/12 00:02:02;;;;;;;;;;;9.40;77.60;;;;;;2063798;28;20340;-67
2022/04/12 00:03:03;;;;;;;;;;;9.40;77.70;;;;;;2062812;28;19969;-67
2022/04/12 00:04:06;;;;;;;;;;;9.40;78.10;;;;;;2062315;28;19921;-67
2022/04/12 00:05:07;;;;;;;;;;;9.40;78.40;;;;;;2063392;28;19914;-68
2022/04/12 00:06:08;;;;;;;;;;;9.30;78.90;;;;;;2066313;28;20482;-68
2022/04/12 00:07:08;;;;;;;;;;;9.30;79.50;;;;;;2066031;28;19945;-68
2022/04/12 00:08:09;;;;;;;;;;;9.30;79.10;;;;;;2065126;28;19924;-68
2022/04/12 00:09:09;;;;;;;;;;;9.20;78.90;;;;;;2063585;28;20386;-68
2022/04/12 00:10:11;;;;;;;;;;;9.20;79.30;;;;;;2059670;28;19918;-67
2022/04/12 00:11:11;;;;;;;;;;;9.20;79.50;;;;;;2063316;28;19961;-68
2022/04/12 00:12:14;;;;;;;;;;;9.20;79.90;;;;;;2060877;28;20389;-68
2022/04/12 00:13:15;;;;;;;;;;;9.20;80.10;;;;;;2063368;28;19965;-68
2022/04/12 00:14:15;;;;;;;;;;;9.20;80.90;;;;;;2066481;28;19910;-67
2022/04/12 00:15:16;;;;;;;;;;;9.10;81.30;;;;;;2064387;28;19999;-67
2022/04/12 00:16:16;;;;;;;;;;;9.10;80.90;;;;;;2073514;28;19909;-68
2022/04/12 00:19:55;;;;;;;;;;;9.00;81.60;;;;;;2061880;28;19914;-68
2022/04/12 00:20:56;;;;;;;;;;;9.00;82.30;;;;;;2064365;28;20001;-68
2022/04/12 00:21:56;;;;;;;;;;;9.00;82.20;;;;;;2065942;28;20407;-68
2022/04/12 00:22:57;;;;;;;;;;;9.00;82.30;;;;;;2063261;28;19952;-67
2022/04/12 00:23:58;;;;;;;;;;;9.00;82.80;;;;;;2062695;28;19910;-68
2022/04/12 00:25:00;;;;;;;;;;;8.90;82.70;;;;;;2063976;28;19910;-68
2022/04/12 00:26:00;;;;;;;;;;;8.90;82.70;;;;;;2060899;28;19949;-68
2022/04/12 00:27:01;;;;;;;;;;;8.90;83.40;;;;;;2062539;28;19936;-68
2022/04/12 00:28:01;;;;;;;;;;;8.90;84.00;;;;;;2060942;28;20278;-68
2022/04/12 00:29:02;;;;;;;;;;;8.90;83.80;;;;;;2063101;28;19914;-68
2022/04/12 00:30:06;;;;;;;;;;;8.80;84.10;;;;;;2063720;28;19913;-68
2022/04/12 00:31:07;;;;;;;;;;;8.80;84.60;;;;;;2063106;28;19921;-68
2022/04/12 00:32:08;;;;;;;;;;;8.80;85.00;;;;;;2064444;28;19945;-68
2022/04/12 00:33:08;;;;;;;;;;;8.80;85.40;;;;;;2065409;28;19917;-68
2022/04/12 00:34:09;;;;;;;;;;;8.80;85.10;;;;;;2062364;28;19910;-68
2022/04/12 00:35:09;;;;;;;;;;;8.80;85.30;;;;;;2060841;28;19914;-68
2022/04/12 00:36:10;;;;;;;;;;;8.70;86.40;;;;;;2066498;28;19917;-68
2022/04/12 00:37:10;;;;;;;;;;;8.70;87.00;;;;;;2064977;28;19969;-68
2022/04/12 00:38:17;;;;;;;;;;;8.70;86.40;;;;;;2063617;28;19914;-68
2022/04/12 00:39:18;;;;;;;;;;;8.70;86.30;;;;;;2062473;28;19921;-68
2022/04/12 00:40:19;;;;;;;;;;;8.70;87.20;;;;;;2064903;28;20381;-68
2022/04/12 00:41:19;;;;;;;;;;;8.60;87.70;;;;;;2063297;28;19925;-68
2022/04/12 00:42:20;;;;;;;;;;;8.60;88.20;;;;;;2063356;28;19972;-68
2022/04/12 00:43:25;;;;;;;;;;;8.60;88.40;;;;;;2064042;28;20416;-68
2022/04/12 00:44:25;;;;;;;;;;;8.60;88.50;;;;;;2060660;28;19920;-68
2022/04/12 00:45:25;;;;;;;;;;;8.60;89.00;;;;;;2063565;28;19951;-68
2022/04/12 00:46:26;;;;;;;;;;;8.60;89.10;;;;;;2064209;28;19918;-68
2022/04/12 00:47:26;;;;;;;;;;;8.50;89.30;;;;;;2063738;28;19918;-68
2022/04/12 00:48:27;;;;;;;;;;;8.50;89.40;;;;;;2063214;28;19913;-68
2022/04/12 00:49:28;;;;;;;;;;;8.50;89.00;;;;;;2060477;28;20352;-68
2022/04/12 00:50:28;;;;;;;;;;;8.50;89.50;;;;;;2064564;28;19917;-68
2022/04/12 00:51:29;;;;;;;;;;;8.50;90.40;;;;;;2064030;28;19918;-68
2022/04/12 00:52:31;;;;;;;;;;;8.40;90.60;;;;;;2065718;28;20385;-68
2022/04/12 00:53:31;;;;;;;;;;;8.40;90.40;;;;;;2067042;28;19920;-68
2022/04/12 00:54:33;;;;;;;;;;;8.40;90.40;;;;;;2065052;28;20381;-68
2022/04/12 00:55:34;;;;;;;;;;;8.40;90.50;;;;;;2061714;28;20024;-68
2022/04/12 00:56:35;;;;;;;;;;;8.40;90.90;;;;;;2064188;28;19909;-68
2022/04/12 00:57:36;;;;;;;;;;;8.40;91.10;;;;;;2060634;28;19917;-68
2022/04/12 00:58:37;;;;;;;;;;;8.40;91.20;;;;;;2064212;28;19909;-68
2022/04/12 00:59:37;;;;;;;;;;;8.30;91.30;;;;;;2064363;28;19922;-68
2022/04/12 01:00:38;;;;;;;;;;;8.30;91.30;;;;;;2066867;28;19937;-67
2022/04/12 01:01:38;;;;;;;;;;;8.30;91.70;;;;;;2066519;28;20381;-67
2022/04/12 01:02:39;;;;;;;;;;;8.30;91.90;;;;;;2064662;28;19910;-67
2022/04/12 01:03:40;;;;;;;;;;;8.30;91.90;;;;;;2065862;28;20620;-67
2022/04/12 01:04:43;;;;;;;;;;;8.30;92.00;;;;;;2062835;28;19913;-67
2022/04/12 01:05:44;;;;;;;;;;;8.30;92.30;;;;;;2063001;28;19917;-67
2022/04/12 01:06:44;;;;;;;;;;;8.20;92.20;;;;;;2062139;28;19920;-67
2022/04/12 01:07:45;;;;;;;;;;;8.20;92.20;;;;;;2063399;28;20369;-67
2022/04/12 01:08:45;;;;;;;;;;;8.20;92.50;;;;;;2065958;28;19916;-67
2022/04/12 01:09:46;;;;;;;;;;;8.20;92.90;;;;;;2062478;28;20016;-67
2022/04/12 01:10:47;;;;;;;;;;;8.20;93.10;;;;;;2063618;28;19910;-67
2022/04/12 01:11:48;;;;;;;;;;;8.20;93.50;;;;;;2064723;28;19952;-67
2022/04/12 01:12:51;;;;;;;;;;;8.20;94.40;;;;;;2064350;28;19918;-67
2022/04/12 01:13:51;;;;;;;;;;;8.20;94.00;;;;;;2065998;28;20301;-67
2022/04/12 01:14:51;;;;;;;;;;;8.10;94.50;;;;;;2065634;28;19913;-67
2022/04/12 01:15:52;;;;;;;;;;;8.20;94.20;;;;;;2067870;28;20348;-67
2022/04/12 01:16:52;;;;;;;;;;;8.10;94.10;;;;;;2067094;28;19918;-67
2022/04/12 01:17:53;;;;;;;;;;;8.10;94.30;;;;;;2066542;28;19910;-67
2022/04/12 01:18:53;;;;;;;;;;;8.10;94.10;;;;;;2067619;28;20001;-67
2022/04/12 01:19:54;;;;;;;;;;;8.10;94.00;;;;;;2065252;28;19932;-67
2022/04/12 01:20:54;;;;;;;;;;;8.00;94.00;;;;;;2064343;28;19921;-67
2022/04/12 01:22:21;;;;;;;;;;;8.00;95.00;;;;;;2068872;28;19984;-67
2022/04/12 01:23:29;;;;;;;;;;;8.00;95.00;;;;;;2059724;28;20045;-67
2022/04/12 01:24:30;;;;;;;;;;;8.00;95.60;;;;;;2065028;28;20345;-67
2022/04/12 01:25:31;;;;;;;;;;;8.00;95.60;;;;;;2056791;28;19922;-67
2022/04/12 01:26:32;;;;;;;;;;;8.00;96.00;;;;;;2063535;28;19926;-67
2022/04/12 01:27:32;;;;;;;;;;;8.00;95.60;;;;;;2063002;28;19952;-67
2022/04/12 01:28:33;;;;;;;;;;;8.00;96.40;;;;;;2066333;28;19913;-67
2022/04/12 01:29:34;;;;;;;;;;;7.90;98.40;;;;;;2065784;28;20381;-67
2022/04/12 01:30:35;;;;;;;;;;;7.90;98.00;;;;;;2062098;28;19910;-67
2022/04/12 01:31:35;;;;;;;;;;;7.90;97.60;;;;;;2067367;28;19914;-67
2022/04/12 01:32:36;;;;;;;;;;;7.90;97.30;;;;;;2068839;28;19910;-67
2022/04/12 01:33:36;;;;;;;;;;;7.90;97.30;;;;;;2066204;28;20426;-67
2022/04/12 01:34:37;;;;;;;;;;;7.90;97.80;;;;;;2064768;28;19921;-67
2022/04/12 01:35:37;;;;;;;;;;;7.90;97.70;;;;;;2065046;28;19918;-67
2022/04/12 01:36:38;;;;;;;;;;;7.90;98.40;;;;;;2068068;28;19914;-67
2022/04/12 01:37:38;;;;;;;;;;;7.80;98.40;;;;;;2064156;28;20308;-67
2022/04/12 01:38:39;;;;;;;;;;;7.80;97.90;;;;;;2063892;28;19913;-67
2022/04/12 01:39:39;;;;;;;;;;;7.80;98.20;;;;;;2064831;28;19924;-67
2022/04/12 01:40:39;;;;;;;;;;;7.80;98.50;;;;;;2068484;28;19917;-67
2022/04/12 01:41:40;;;;;;;;;;;7.80;98.70;;;;;;2063485;28;19913;-67
2022/04/12 01:42:40;;;;;;;;;;;7.80;98.70;;;;;;2066828;28;20055;-67
2022/04/12 01:43:41;;;;;;;;;;;7.80;99.40;;;;;;2065743;28;19917;-67
2022/04/12 01:44:41;;;;;;;;;;;7.80;99.50;;;;;;2064413;28;19914;-67
2022/04/12 01:45:42;;;;;;;;;;;7.80;99.30;;;;;;2064805;28;19913;-67
2022/04/12 01:46:42;;;;;;;;;;;7.80;98.70;;;;;;2061502;28;19913;-67
2022/04/12 01:47:43;;;;;;;;;;;7.80;98.60;;;;;;2068442;28;19910;-67
2022/04/12 01:48:44;;;;;;;;;;;7.70;98.70;;;;;;2064472;28;19933;-67
2022/04/12 01:49:45;;;;;;;;;;;7.70;99.10;;;;;;2066252;28;19913;-67
2022/04/12 01:50:45;;;;;;;;;;;7.70;99.10;;;;;;2067037;28;19945;-67
2022/04/12 01:51:48;;;;;;;;;;;7.70;99.60;;;;;;2061045;28;19964;-67
2022/04/12 01:52:48;;;;;;;;;;;7.70;99.60;;;;;;2063300;28;20366;-67
2022/04/12 01:53:49;;;;;;;;;;;7.70;99.60;;;;;;2063809;28;20281;-67
2022/04/12 01:54:49;;;;;;;;;;;7.70;99.90;;;;;;2064861;28;20285;-67
2022/04/12 01:55:50;;;;;;;;;;;7.70;99.90;;;;;;2067872;28;19909;-67
2022/04/12 01:56:50;;;;;;;;;;;7.70;99.90;;;;;;2067620;28;19976;-67
2022/04/12 01:57:51;;;;;;;;;;;7.70;99.90;;;;;;2069458;28;19917;-67
2022/04/12 01:58:51;;;;;;;;;;;7.70;99.90;;;;;;2066838;28;20782;-67
2022/04/12 01:59:51;;;;;;;;;;;7.70;99.90;;;;;;2064381;28;19925;-67
2022/04/12 02:00:52;;;;;;;;;;;7.60;99.90;;;;;;2063772;28;19913;-67
2022/04/12 02:01:52;;;;;;;;;;;7.70;99.90;;;;;;2065113;28;19909;-67
2022/04/12 02:02:53;;;;;;;;;;;7.60;99.90;;;;;;2061746;28;19953;-67
2022/04/12 02:03:53;;;;;;;;;;;7.60;99.90;;;;;;2068157;28;19949;-67
2022/04/12 02:04:54;;;;;;;;;;;7.60;99.90;;;;;;2064360;28;19961;-67
2022/04/12 02:05:54;;;;;;;;;;;7.60;99.90;;;;;;2063299;28;19914;-67
2022/04/12 02:06:55;;;;;;;;;;;7.60;99.90;;;;;;2064708;28;19914;-67
2022/04/12 02:07:55;;;;;;;;;;;7.60;99.90;;;;;;2065184;28;20293;-67
2022/04/12 02:08:56;;;;;;;;;;;7.60;99.90;;;;;;2065417;28;19953;-67
2022/04/12 02:09:56;;;;;;;;;;;7.60;99.90;;;;;;2063291;28;19953;-67
2022/04/12 02:10:57;;;;;;;;;;;7.60;99.90;;;;;;2068396;28;19918;-67
2022/04/12 02:11:58;;;;;;;;;;;7.60;99.90;;;;;;2068479;28;19940;-67
2022/04/12 02:12:59;;;;;;;;;;;7.50;99.90;;;;;;2065311;28;20349;-67
2022/04/12 02:13:59;;;;;;;;;;;7.50;99.90;;;;;;2066085;28;19913;-67
2022/04/12 02:15:00;;;;;;;;;;;7.50;99.90;;;;;;2066438;28;19972;-67
2022/04/12 02:16:00;;;;;;;;;;;7.50;99.90;;;;;;2064651;28;20016;-67
2022/04/12 02:17:00;;;;;;;;;;;7.50;99.90;;;;;;2064672;28;20040;-67
2022/04/12 02:18:01;;;;;;;;;;;7.50;99.90;;;;;;2064870;28;20397;-67
2022/04/12 02:19:01;;;;;;;;;;;7.50;99.90;;;;;;2064297;28;19910;-67
2022/04/12 02:20:02;;;;;;;;;;;7.50;99.90;;;;;;2063605;28;19917;-67
2022/04/12 02:21:03;;;;;;;;;;;7.50;99.90;;;;;;2060513;28;20385;-67
2022/04/12 02:22:05;;;;;;;;;;;7.50;99.90;;;;;;2062890;28;19914;-67
2022/04/12 02:23:05;;;;;;;;;;;7.50;99.90;;;;;;2065742;28;19910;-67
2022/04/12 02:24:06;;;;;;;;;;;7.40;99.90;;;;;;2064672;28;19964;-67
2022/04/12 02:25:07;;;;;;;;;;;7.40;99.90;;;;;;2063897;28;19917;-67
2022/04/12 02:26:07;;;;;;;;;;;7.40;99.90;;;;;;2062997;28;19916;-67
2022/04/12 02:27:07;;;;;;;;;;;7.40;99.90;;;;;;2068017;28;20300;-67
2022/04/12 02:28:08;;;;;;;;;;;7.40;99.90;;;;;;2067986;28;19914;-68
2022/04/12 02:29:09;;;;;;;;;;;7.40;99.90;;;;;;2063293;28;19956;-68
2022/04/12 02:30:10;;;;;;;;;;;7.40;99.90;;;;;;2064890;28;20458;-68
2022/04/12 02:31:11;;;;;;;;;;;7.30;99.90;;;;;;2064655;28;20339;-68
2022/04/12 02:32:11;;;;;;;;;;;7.40;99.90;;;;;;2065174;28;19910;-68
2022/04/12 02:33:12;;;;;;;;;;;7.30;99.90;;;;;;2063819;28;19910;-68
2022/04/12 02:34:12;;;;;;;;;;;7.30;99.90;;;;;;2060307;28;19949;-68
2022/04/12 02:35:13;;;;;;;;;;;7.30;99.90;;;;;;2063184;28;19963;-68
2022/04/12 02:36:13;;;;;;;;;;;7.30;99.90;;;;;;2067466;28;19945;-68
2022/04/12 02:37:14;;;;;;;;;;;7.30;99.90;;;;;;2067473;28;20008;-68
2022/04/12 02:38:14;;;;;;;;;;;7.30;99.90;;;;;;2066696;28;19913;-68
2022/04/12 02:39:15;;;;;;;;;;;7.30;99.90;;;;;;2062707;28;19916;-68
2022/04/12 02:40:15;;;;;;;;;;;7.30;99.90;;;;;;2063553;28;19914;-68
2022/04/12 02:41:16;;;;;;;;;;;7.20;99.90;;;;;;2061441;28;19984;-67
2022/04/12 02:42:17;;;;;;;;;;;7.30;99.90;;;;;;2060493;28;20004;-67
2022/04/12 02:43:17;;;;;;;;;;;7.30;99.90;;;;;;2061118;28;20285;-67
2022/04/12 02:44:18;;;;;;;;;;;7.20;99.90;;;;;;2066632;28;20012;-67
2022/04/12 02:45:18;;;;;;;;;;;7.20;99.90;;;;;;2066997;28;19910;-67
2022/04/12 02:46:18;;;;;;;;;;;7.20;99.90;;;;;;2064463;28;19921;-67
2022/04/12 02:47:22;;;;;;;;;;;7.20;99.90;;;;;;2063605;28;19920;-67
2022/04/12 02:48:23;;;;;;;;;;;7.20;99.90;;;;;;2062955;28;19910;-67
2022/04/12 02:49:23;;;;;;;;;;;7.20;99.90;;;;;;2064496;28;19921;-67
2022/04/12 02:50:24;;;;;;;;;;;7.20;99.90;;;;;;2065188;28;19914;-67
2022/04/12 02:51:24;;;;;;;;;;;7.20;99.90;;;;;;2067104;28;19910;-67
2022/04/12 02:52:25;;;;;;;;;;;7.20;99.90;;;;;;2065693;28;20285;-67
2022/04/12 02:53:25;;;;;;;;;;;7.20;99.90;;;;;;2067405;28;20333;-67
2022/04/12 02:54:25;;;;;;;;;;;7.20;99.90;;;;;;2066025;28;19917;-67
2022/04/12 02:55:26;;;;;;;;;;;7.20;99.90;;;;;;2065130;28;19953;-67
2022/04/12 02:56:26;;;;;;;;;;;7.10;99.90;;;;;;2060470;28;20000;-67
2022/04/12 02:57:27;;;;;;;;;;;7.20;99.90;;;;;;2064660;28;19917;-67
2022/04/12 02:58:27;;;;;;;;;;;7.20;99.90;;;;;;2065211;28;20016;-67
2022/04/12 02:59:28;;;;;;;;;;;7.10;99.90;;;;;;2064479;28;20392;-67
2022/04/12 03:00:28;;;;;;;;;;;7.10;99.90;;;;;;2065048;28;19921;-67
2022/04/12 03:01:29;;;;;;;;;;;7.10;99.90;;;;;;2063588;28;19910;-67
2022/04/12 03:02:29;;;;;;;;;;;7.10;99.90;;;;;;2062765;28;19910;-67
2022/04/12 03:03:30;;;;;;;;;;;7.10;99.90;;;;;;2064429;28;19917;-67
2022/04/12 03:04:30;;;;;;;;;;;7.10;99.90;;;;;;2061641;28;19918;-67
2022/04/12 03:05:30;;;;;;;;;;;7.10;99.90;;;;;;2060597;28;19969;-67
2022/04/12 03:06:31;;;;;;;;;;;7.10;99.90;;;;;;2065386;28;20400;-67
2022/04/12 03:07:31;;;;;;;;;;;7.10;99.90;;;;;;2067431;28;19914;-67
2022/04/12 03:08:32;;;;;;;;;;;7.10;99.90;;;;;;2064998;28;20408;-67
2022/04/12 03:09:32;;;;;;;;;;;7.10;99.90;;;;;;2066124;28;19914;-67
2022/04/12 03:10:33;;;;;;;;;;;7.10;99.90;;;;;;2064099;28;19964;-67
2022/04/12 03:11:35;;;;;;;;;;;7.10;99.90;;;;;;2065193;28;20412;-67
2022/04/12 03:12:36;;;;;;;;;;;7.10;99.90;;;;;;2064810;28;20029;-67
2022/04/12 03:13:36;;;;;;;;;;;7.10;99.90;;;;;;2064147;28;19914;-67
2022/04/12 03:14:37;;;;;;;;;;;7.10;99.90;;;;;;2062272;28;19918;-67
2022/04/12 03:15:37;;;;;;;;;;;7.10;99.90;;;;;;2062716;28;19918;-67
2022/04/12 03:16:38;;;;;;;;;;;7.10;99.90;;;;;;2063825;28;20047;-67
2022/04/12 03:17:39;;;;;;;;;;;7.10;99.90;;;;;;2062342;28;20724;-67
2022/04/12 03:18:39;;;;;;;;;;;7.10;99.90;;;;;;2064509;28;19910;-67
2022/04/12 03:19:40;;;;;;;;;;;7.10;99.90;;;;;;2064955;28;19914;-67
2022/04/12 03:20:40;;;;;;;;;;;7.10;99.90;;;;;;2064421;28;19917;-67
2022/04/12 03:21:42;;;;;;;;;;;7.10;99.90;;;;;;2064302;28;19949;-67
2022/04/12 03:22:42;;;;;;;;;;;7.10;99.90;;;;;;2064469;28;20036;-67
2022/04/12 03:23:43;;;;;;;;;;;7.10;99.90;;;;;;2065736;28;19916;-67
2022/04/12 03:24:45;;;;;;;;;;;7.10;99.90;;;;;;2067064;28;20284;-67
2022/04/12 03:25:45;;;;;;;;;;;7.10;99.90;;;;;;2060032;28;20385;-68
2022/04/12 03:26:45;;;;;;;;;;;7.10;99.90;;;;;;2061238;28;20012;-68
2022/04/12 03:27:46;;;;;;;;;;;7.10;99.90;;;;;;2064118;28;19937;-68
2022/04/12 03:28:47;;;;;;;;;;;7.10;99.90;;;;;;2061663;28;19952;-68
2022/04/12 03:29:47;;;;;;;;;;;7.10;99.90;;;;;;2063727;28;19913;-68
2022/04/12 03:30:48;;;;;;;;;;;7.10;99.90;;;;;;2063877;28;19917;-68
2022/04/12 03:31:48;;;;;;;;;;;7.10;99.90;;;;;;2065812;28;19917;-68
2022/04/12 03:32:48;;;;;;;;;;;7.10;99.90;;;;;;2066481;28;20390;-68
2022/04/12 03:33:49;;;;;;;;;;;7.10;99.90;;;;;;2064521;28;19910;-68
2022/04/12 03:34:50;;;;;;;;;;;7.10;99.90;;;;;;2062835;28;19925;-68
2022/04/12 03:35:50;;;;;;;;;;;7.10;99.90;;;;;;2062859;28;19910;-68
2022/04/12 03:36:51;;;;;;;;;;;7.10;99.90;;;;;;2064224;28;20012;-68
2022/04/12 03:37:52;;;;;;;;;;;7.00;99.90;;;;;;2068064;28;20424;-67
2022/04/12 03:38:52;;;;;;;;;;;7.10;99.90;;;;;;2064569;28;19910;-67
2022/04/12 03:39:53;;;;;;;;;;;7.00;99.90;;;;;;2066476;28;19910;-67
2022/04/12 03:40:58;;;;;;;;;;;7.00;99.90;;;;;;2066521;28;19910;-67
2022/04/12 03:41:58;;;;;;;;;;;7.10;99.90;;;;;;2061615;28;19926;-67
2022/04/12 03:43:00;;;;;;;;;;;7.10;99.90;;;;;;2065671;28;19910;-67
2022/04/12 03:44:00;;;;;;;;;;;7.00;99.90;;;;;;2063803;28;19952;-67
2022/04/12 03:45:01;;;;;;;;;;;7.10;99.90;;;;;;2061678;28;19921;-67
2022/04/12 03:46:01;;;;;;;;;;;7.10;99.90;;;;;;2067548;28;19985;-67
2022/04/12 03:47:02;;;;;;;;;;;7.00;99.90;;;;;;2065084;28;20378;-67
2022/04/12 03:48:03;;;;;;;;;;;7.00;99.90;;;;;;2067140;28;19917;-67
2022/04/12 03:49:03;;;;;;;;;;;7.00;99.90;;;;;;2066163;28;19921;-67
2022/04/12 03:50:04;;;;;;;;;;;7.00;99.90;;;;;;2065603;28;19920;-67
2022/04/12 03:51:05;;;;;;;;;;;7.00;99.90;;;;;;2064450;28;19914;-67
2022/04/12 03:52:05;;;;;;;;;;;7.00;99.90;;;;;;2061600;28;19996;-67
2022/04/12 03:53:06;;;;;;;;;;;7.00;99.90;;;;;;2062694;28;19914;-67
2022/04/12 03:54:06;;;;;;;;;;;7.00;99.90;;;;;;2068074;28;20371;-67
2022/04/12 03:55:10;;;;;;;;;;;7.00;99.90;;;;;;2066038;28;19947;-67
2022/04/12 03:56:11;;;;;;;;;;;7.00;99.90;;;;;;2065609;28;20259;-67
2022/04/12 03:57:11;;;;;;;;;;;7.00;99.90;;;;;;2065598;28;19940;-67
2022/04/12 03:58:11;;;;;;;;;;;7.00;99.90;;;;;;2065933;28;19910;-67
2022/04/12 03:59:12;;;;;;;;;;;7.00;99.90;;;;;;2062900;28;20383;-67
2022/04/12 04:00:13;;;;;;;;;;;7.00;99.90;;;;;;2064295;28;19910;-67
2022/04/12 04:01:13;;;;;;;;;;;7.00;99.90;;;;;;2062016;28;19997;-67
2022/04/12 04:02:14;;;;;;;;;;;7.00;99.90;;;;;;2067908;28;20404;-67
2022/04/12 04:03:15;;;;;;;;;;;7.00;99.90;;;;;;2066736;28;19936;-67
2022/04/12 04:04:15;;;;;;;;;;;7.00;99.90;;;;;;2065607;28;20383;-67
2022/04/12 04:05:16;;;;;;;;;;;7.00;99.90;;;;;;2061652;28;19910;-67
2022/04/12 04:06:16;;;;;;;;;;;7.00;99.90;;;;;;2065789;28;20462;-67
2022/04/12 04:07:17;;;;;;;;;;;7.00;99.90;;;;;;2064677;28;19910;-67
2022/04/12 04:08:17;;;;;;;;;;;7.00;99.90;;;;;;2065755;28;19944;-67
2022/04/12 04:09:18;;;;;;;;;;;7.00;99.90;;;;;;2060890;28;19910;-67
2022/04/12 04:10:18;;;;;;;;;;;6.90;99.90;;;;;;2063029;28;19913;-67
2022/04/12 04:11:19;;;;;;;;;;;7.00;99.90;;;;;;2064306;28;19910;-68
2022/04/12 04:12:20;;;;;;;;;;;6.90;99.90;;;;;;2064486;28;19917;-68
2022/04/12 04:13:20;;;;;;;;;;;6.90;99.90;;;;;;2062179;28;19909;-68
2022/04/12 04:14:22;;;;;;;;;;;6.90;99.90;;;;;;2063107;28;19941;-68
2022/04/12 04:15:22;;;;;;;;;;;6.90;99.90;;;;;;2061402;28;19993;-68
2022/04/12 04:16:23;;;;;;;;;;;6.90;99.90;;;;;;2064123;28;19917;-68
2022/04/12 04:17:23;;;;;;;;;;;6.90;99.90;;;;;;2062307;28;19961;-68
2022/04/12 04:18:24;;;;;;;;;;;6.90;99.90;;;;;;2064016;28;19917;-68
2022/04/12 04:19:24;;;;;;;;;;;6.90;99.90;;;;;;2066998;28;19917;-68
2022/04/12 04:20:25;;;;;;;;;;;6.90;99.90;;;;;;2064898;28;19914;-68
2022/04/12 04:21:25;;;;;;;;;;;6.90;99.90;;;;;;2066325;28;20285;-68
2022/04/12 04:22:25;;;;;;;;;;;6.90;99.90;;;;;;2064088;28;19918;-68
2022/04/12 04:23:26;;;;;;;;;;;6.90;99.90;;;;;;2063103;28;20691;-67
2022/04/12 04:24:26;;;;;;;;;;;6.90;99.90;;;;;;2062942;28;19921;-67
2022/04/12 04:25:27;;;;;;;;;;;6.90;99.90;;;;;;2056096;28;19925;-67
2022/04/12 04:26:27;;;;;;;;;;;6.90;99.90;;;;;;2058686;28;20353;-67
2022/04/12 04:27:29;;;;;;;;;;;6.80;99.90;;;;;;2062152;28;19914;-67
2022/04/12 04:28:30;;;;;;;;;;;6.90;99.90;;;;;;2056301;28;19921;-67
2022/04/12 04:29:33;;;;;;;;;;;6.90;99.90;;;;;;2062348;28;19913;-67
2022/04/12 04:30:35;;;;;;;;;;;6.90;99.90;;;;;;2063575;28;19914;-67
2022/04/12 04:31:36;;;;;;;;;;;6.90;99.90;;;;;;2060965;28;19914;-67
2022/04/12 04:32:36;;;;;;;;;;;6.90;99.90;;;;;;2063056;28;19910;-67
2022/04/12 04:33:37;;;;;;;;;;;6.90;99.90;;;;;;2062367;28;19922;-67
2022/04/12 04:34:37;;;;;;;;;;;6.90;99.90;;;;;;2059216;28;19930;-67
2022/04/12 04:35:38;;;;;;;;;;;6.80;99.90;;;;;;2063396;28;19914;-67
2022/04/12 04:36:38;;;;;;;;;;;6.90;99.90;;;;;;2065418;28;20393;-67
2022/04/12 04:37:45;;;;;;;;;;;6.80;99.90;;;;;;2061094;28;19921;-67
2022/04/12 04:38:46;;;;;;;;;;;6.80;99.90;;;;;;2058513;28;19937;-68
2022/04/12 04:39:46;;;;;;;;;;;6.80;99.90;;;;;;2058984;28;20029;-68
2022/04/12 04:40:48;;;;;;;;;;;6.80;99.90;;;;;;2061713;28;19914;-67
2022/04/12 04:41:49;;;;;;;;;;;6.80;99.90;;;;;;2061579;28;19964;-67
2022/04/12 04:42:52;;;;;;;;;;;6.80;99.90;;;;;;2059177;28;19968;-68
2022/04/12 04:43:52;;;;;;;;;;;6.80;99.90;;;;;;2060928;28;20001;-68
2022/04/12 04:44:53;;;;;;;;;;;6.90;99.90;;;;;;2061503;28;19910;-68
2022/04/12 04:45:53;;;;;;;;;;;6.80;99.90;;;;;;2061111;28;19913;-67
2022/04/12 04:46:54;;;;;;;;;;;6.90;99.90;;;;;;2058806;28;19996;-67
2022/04/12 04:47:56;;;;;;;;;;;6.90;99.90;;;;;;2060618;28;20739;-67
2022/04/12 04:48:56;;;;;;;;;;;6.90;99.90;;;;;;2058690;28;19910;-67
2022/04/12 04:49:57;;;;;;;;;;;6.90;99.90;;;;;;2060832;28;19921;-67
2022/04/12 04:50:57;;;;;;;;;;;6.90;99.90;;;;;;2060171;28;20421;-67
2022/04/12 04:51:58;;;;;;;;;;;6.90;99.90;;;;;;2060331;28;19940;-67
2022/04/12 04:52:59;;;;;;;;;;;6.90;99.90;;;;;;2062006;28;20082;-67
2022/04/12 04:53:59;;;;;;;;;;;6.90;99.90;;;;;;2062546;28;19917;-67
2022/04/12 04:55:00;;;;;;;;;;;6.90;99.90;;;;;;2062750;28;20477;-67
2022/04/12 04:56:00;;;;;;;;;;;6.90;99.90;;;;;;2059434;28;19914;-67
2022/04/12 04:57:01;;;;;;;;;;;6.90;99.90;;;;;;2061381;28;20622;-67
2022/04/12 04:58:01;;;;;;;;;;;7.00;99.90;;;;;;2059950;28;19914;-67
2022/04/12 04:59:02;;;;;;;;;;;6.90;99.90;;;;;;2058643;28;20309;-68
2022/04/12 05:00:04;;;;;;;;;;;6.90;99.90;;;;;;2057625;28;19914;-68
2022/04/12 05:01:04;;;;;;;;;;;6.90;99.90;;;;;;2060743;28;20354;-68
2022/04/12 05:02:05;;;;;;;;;;;6.90;99.90;;;;;;2059064;28;20368;-68
2022/04/12 05:03:05;;;;;;;;;;;6.90;99.90;;;;;;2060176;28;20030;-68
2022/04/12 05:04:05;;;;;;;;;;;6.90;99.90;;;;;;2059602;28;19953;-68
2022/04/12 05:05:06;;;;;;;;;;;6.90;99.90;;;;;;2060274;28;19937;-68
2022/04/12 05:06:07;;;;;;;;;;;6.90;99.90;;;;;;2062440;28;19910;-68
2022/04/12 05:07:07;;;;;;;;;;;6.90;99.90;;;;;;2057928;28;19910;-68
2022/04/12 05:08:08;;;;;;;;;;;6.90;99.90;;;;;;2060076;28;19917;-68
2022/04/12 05:09:08;;;;;;;;;;;7.00;99.90;;;;;;2060070;28;20358;-68
2022/04/12 05:10:11;;;;;;;;;;;7.00;99.90;;;;;;2060307;28;19922;-68
2022/04/12 05:11:12;;;;;;;;;;;7.00;99.90;;;;;;2059576;28;19925;-68
2022/04/12 05:12:12;;;;;;;;;;;7.00;99.90;;;;;;2057411;28;19945;-68
2022/04/12 05:13:13;;;;;;;;;;;7.00;99.90;;;;;;2060844;28;19910;-68
2022/04/12 05:14:13;;;;;;;;;;;7.00;99.90;;;;;;2060884;28;19914;-68
2022/04/12 05:15:15;;;;;;;;;;;7.00;99.90;;;;;;2058823;28;19910;-67
2022/04/12 05:16:15;;;;;;;;;;;7.00;99.90;;;;;;2059466;28;19910;-67
2022/04/12 05:17:25;;;;;;;;;;;7.00;99.90;;;;;;2059493;28;19918;-67
2022/04/12 05:18:26;;;;;;;;;;;7.00;99.90;;;;;;2058393;28;20463;-67
2022/04/12 05:19:26;;;;;;;;;;;7.00;99.90;;;;;;2065489;28;20658;-67
2022/04/12 05:20:26;;;;;;;;;;;7.10;99.90;;;;;;2064701;28;19922;-68
2022/04/12 05:21:27;;;;;;;;;;;7.10;99.90;;;;;;2057232;28;20327;-68
2022/04/12 05:22:27;;;;;;;;;;;7.10;99.90;;;;;;2059559;28;19917;-68
2022/04/12 05:23:28;;;;;;;;;;;7.10;99.90;;;;;;2059186;28;19973;-68
2022/04/12 05:24:28;;;;;;;;;;;7.10;99.90;;;;;;2057430;28;19957;-67
2022/04/12 05:25:29;;;;;;;;;;;7.10;99.90;;;;;;2058193;28;19918;-67
2022/04/12 05:26:30;;;;;;;;;;;7.10;99.90;;;;;;2056503;28;19911;-67
2022/04/12 05:27:31;;;;;;;;;;;7.10;99.90;;;;;;2060060;28;19911;-67
2022/04/12 05:28:31;;;;;;;;;;;7.10;99.90;;;;;;2059412;28;19918;-67
2022/04/12 05:29:31;;;;;;;;;;;7.20;99.90;;;;;;2056710;28;19918;-67
2022/04/12 05:30:32;;;;;;;;;;;7.20;99.90;;;;;;2061511;28;20064;-67
2022/04/12 05:31:33;;;;;;;;;;;7.20;99.90;;;;;;2060522;28;20004;-67
2022/04/12 05:32:34;;;;;;;;;;;7.20;99.90;;;;;;2058889;28;19911;-67
2022/04/12 05:33:34;;;;;;;;;;;7.20;99.90;;;;;;2060100;28;20389;-67
2022/04/12 05:34:36;;;;;;;;;;;7.20;99.90;;;;;;2059915;28;20349;-67
2022/04/12 05:35:36;;;;;;;;;;;7.20;99.90;;;;;;2059590;28;19937;-67
2022/04/12 05:36:37;;;;;;;;;;;7.20;99.90;;;;;;2059062;28;20370;-67
2022/04/12 05:37:48;;;;;;;;;;;7.20;99.90;;;;;;2061753;28;19925;-67
2022/04/12 05:38:49;;;;;;;;;;;7.30;99.90;;;;;;2057299;28;19969;-67
2022/04/12 05:39:49;;;;;;;;;;;7.30;99.90;;;;;;2057974;28;19914;-67
2022/04/12 05:40:50;;;;;;;;;;;7.30;99.90;;;;;;2060289;28;19916;-67
2022/04/12 05:41:50;;;;;;;;;;;7.30;99.90;;;;;;2060432;28;20665;-67
2022/04/12 05:42:53;;;;;;;;;;;7.30;99.90;;;;;;2060714;28;19961;-67
2022/04/12 05:43:54;;;;;;;;;;;7.30;99.90;;;;;;2069118;28;19967;-67
2022/04/12 05:44:54;;;;;;;;;;;7.30;99.90;;;;;;2069403;28;20472;-67
2022/04/12 05:45:54;;;;;;;;;;;7.30;99.90;;;;;;2057945;28;20033;-67
2022/04/12 05:46:55;;;;;;;;;;;7.30;99.90;;;;;;2059742;28;19961;-67
2022/04/12 05:47:56;;;;;;;;;;;7.40;99.90;;;;;;2059979;28;20391;-67
2022/04/12 05:48:56;;;;;;;;;;;7.40;99.90;;;;;;2058493;28;19918;-67
2022/04/12 05:49:57;;;;;;;;;;;7.40;99.90;;;;;;2057575;28;19914;-67
2022/04/12 05:50:57;;;;;;;;;;;7.40;99.90;;;;;;2057603;28;20429;-67
2022/04/12 05:51:58;;;;;;;;;;;7.50;99.90;;;;;;2058147;28;19910;-68
2022/04/12 05:52:58;;;;;;;;;;;7.50;99.90;;;;;;2058937;28;20392;-68
2022/04/12 05:53:58;;;;;;;;;;;7.50;99.90;;;;;;2060871;28;19913;-68
2022/04/12 05:54:59;;;;;;;;;;;7.50;99.90;;;;;;2059844;28;19921;-68
2022/04/12 05:55:59;;;;;;;;;;;7.60;99.90;;;;;;2061082;28;20017;-68
2022/04/12 05:57:00;;;;;;;;;;;7.60;99.90;;;;;;2062553;28;19913;-68
2022/04/12 05:58:01;;;;;;;;;;;7.60;99.90;;;;;;2058811;28;20429;-68
2022/04/12 05:59:02;;;;;;;;;;;7.70;99.90;;;;;;2061064;28;19910;-68
2022/04/12 06:00:03;;;;;;;;;;;7.70;99.90;;;;;;2059653;28;20421;-68
2022/04/12 06:01:04;;;;;;;;;;;7.70;99.90;;;;;;2061165;28;20051;-68
2022/04/12 06:02:04;;;;;;;;;;;7.80;99.90;;;;;;2059411;28;19918;-68